sensor_id;sensor_type;location;lat;lon;timestamp;pressure;altitude;pressure_sealevel;temperature
68939;BMP180;59064;45.294;11.816;2023-05-10T00:00:39;101117.60;;;16.10
68939;BMP180;59064;45.294;11.816;2023-05-10T00:03:04;101114.20;;;16.10
68939;BMP180;59064;45.294;11.816;2023-05-10T00:05:31;101111.20;;;16.10
68939;BMP180;59064;45.294;11.816;2023-05-10T00:07:56;101105.40;;;16.10
68939;BMP180;59064;45.294;11.816;2023-05-10T00:10:22;101103.60;;;16.06
68939;BMP180;59064;45.294;11.816;2023-05-10T00:12:48;101088.80;;;16.00
68939;BMP180;59064;45.294;11.816;2023-05-10T00:15:13;101083.60;;;16.00
68939;BMP180;59064;45.294;11.816;2023-05-10T00:17:39;101080.60;;;16.00
68939;BMP180;59064;45.294;11.816;2023-05-10T00:20:05;101074.20;;;15.90
68939;BMP180;59064;45.294;11.816;2023-05-10T00:22:31;101073.20;;;15.90
68939;BMP180;59064;45.294;11.816;2023-05-10T00:24:58;101067.20;;;15.80
68939;BMP180;59064;45.294;11.816;2023-05-10T00:27:24;101061.00;;;15.80
68939;BMP180;59064;45.294;11.816;2023-05-10T00:29:51;101057.60;;;15.72
68939;BMP180;59064;45.294;11.816;2023-05-10T00:32:17;101053.00;;;15.70
68939;BMP180;59064;45.294;11.816;2023-05-10T00:34:43;101050.60;;;15.70
68939;BMP180;59064;45.294;11.816;2023-05-10T00:37:09;101052.00;;;15.60
68939;BMP180;59064;45.294;11.816;2023-05-10T00:39:34;101048.80;;;15.60
68939;BMP180;59064;45.294;11.816;2023-05-10T00:42:01;101043.00;;;15.58
68939;BMP180;59064;45.294;11.816;2023-05-10T00:44:26;101038.80;;;15.50
68939;BMP180;59064;45.294;11.816;2023-05-10T00:46:53;101039.20;;;15.42
68939;BMP180;59064;45.294;11.816;2023-05-10T00:49:19;101037.60;;;15.40
68939;BMP180;59064;45.294;11.816;2023-05-10T00:51:46;101035.60;;;15.40
68939;BMP180;59064;45.294;11.816;2023-05-10T00:54:14;101040.00;;;15.30
68939;BMP180;59064;45.294;11.816;2023-05-10T00:56:40;101042.60;;;15.30
68939;BMP180;59064;45.294;11.816;2023-05-10T00:59:07;101038.20;;;15.28
68939;BMP180;59064;45.294;11.816;2023-05-10T01:01:33;101039.40;;;15.20
68939;BMP180;59064;45.294;11.816;2023-05-10T01:03:59;101032.80;;;15.20
68939;BMP180;59064;45.294;11.816;2023-05-10T01:06:25;101035.40;;;15.10
68939;BMP180;59064;45.294;11.816;2023-05-10T01:08:50;101038.20;;;15.10
68939;BMP180;59064;45.294;11.816;2023-05-10T01:11:16;101036.00;;;15.10
68939;BMP180;59064;45.294;11.816;2023-05-10T01:13:43;101029.20;;;15.00
68939;BMP180;59064;45.294;11.816;2023-05-10T01:16:10;101034.80;;;15.00
68939;BMP180;59064;45.294;11.816;2023-05-10T01:18:39;101033.20;;;14.98
68939;BMP180;59064;45.294;11.816;2023-05-10T01:30:01;101019.60;;;14.70
68939;BMP180;59064;45.294;11.816;2023-05-10T01:32:45;101018.60;;;14.60
68939;BMP180;59064;45.294;11.816;2023-05-10T01:35:34;101026.20;;;14.60
68939;BMP180;59064;45.294;11.816;2023-05-10T01:43:19;101023.80;;;14.50
68939;BMP180;59064;45.294;11.816;2023-05-10T01:46:00;101028.60;;;14.40
68939;BMP180;59064;45.294;11.816;2023-05-10T01:48:30;101026.00;;;14.40
68939;BMP180;59064;45.294;11.816;2023-05-10T01:50:57;101023.20;;;14.36
68939;BMP180;59064;45.294;11.816;2023-05-10T01:53:23;101025.80;;;14.30
68939;BMP180;59064;45.294;11.816;2023-05-10T01:55:52;101019.00;;;14.30
68939;BMP180;59064;45.294;11.816;2023-05-10T01:58:22;101020.00;;;14.20
68939;BMP180;59064;45.294;11.816;2023-05-10T02:00:51;101013.60;;;14.20
68939;BMP180;59064;45.294;11.816;2023-05-10T02:03:19;101014.80;;;14.20
68939;BMP180;59064;45.294;11.816;2023-05-10T02:05:48;101013.40;;;14.18
68939;BMP180;59064;45.294;11.816;2023-05-10T02:08:18;101012.40;;;14.10
68939;BMP180;59064;45.294;11.816;2023-05-10T02:10:45;101004.00;;;14.10
68939;BMP180;59064;45.294;11.816;2023-05-10T02:13:12;101003.60;;;14.10
68939;BMP180;59064;45.294;11.816;2023-05-10T02:15:40;101003.80;;;14.10
68939;BMP180;59064;45.294;11.816;2023-05-10T02:18:07;101003.80;;;14.10
68939;BMP180;59064;45.294;11.816;2023-05-10T02:20:34;101001.40;;;14.10
68939;BMP180;59064;45.294;11.816;2023-05-10T02:23:02;100993.60;;;14.10
68939;BMP180;59064;45.294;11.816;2023-05-10T02:25:29;100999.80;;;14.10
68939;BMP180;59064;45.294;11.816;2023-05-10T02:27:56;100991.40;;;14.10
68939;BMP180;59064;45.294;11.816;2023-05-10T02:30:23;100996.20;;;14.10
68939;BMP180;59064;45.294;11.816;2023-05-10T02:32:50;101001.80;;;14.10
68939;BMP180;59064;45.294;11.816;2023-05-10T02:35:18;101000.40;;;14.10
68939;BMP180;59064;45.294;11.816;2023-05-10T02:37:45;100999.80;;;14.10
68939;BMP180;59064;45.294;11.816;2023-05-10T02:40:12;101002.00;;;14.10
68939;BMP180;59064;45.294;11.816;2023-05-10T02:42:42;101004.60;;;14.10
68939;BMP180;59064;45.294;11.816;2023-05-10T02:45:12;101003.20;;;14.10
68939;BMP180;59064;45.294;11.816;2023-05-10T02:47:38;101005.40;;;14.10
68939;BMP180;59064;45.294;11.816;2023-05-10T02:50:04;101003.60;;;14.10
68939;BMP180;59064;45.294;11.816;2023-05-10T02:52:47;101002.40;;;14.10
68939;BMP180;59064;45.294;11.816;2023-05-10T02:55:16;101004.40;;;14.10
68939;BMP180;59064;45.294;11.816;2023-05-10T02:57:52;101002.00;;;14.08
68939;BMP180;59064;45.294;11.816;2023-05-10T03:00:19;101001.20;;;14.00
68939;BMP180;59064;45.294;11.816;2023-05-10T03:02:45;101002.00;;;14.00
68939;BMP180;59064;45.294;11.816;2023-05-10T03:05:10;100999.60;;;14.00
68939;BMP180;59064;45.294;11.816;2023-05-10T03:07:36;101001.80;;;14.00
68939;BMP180;59064;45.294;11.816;2023-05-10T03:10:05;100999.80;;;13.90
68939;BMP180;59064;45.294;11.816;2023-05-10T03:12:50;100998.80;;;13.90
68939;BMP180;59064;45.294;11.816;2023-05-10T03:15:25;101001.20;;;13.80
68939;BMP180;59064;45.294;11.816;2023-05-10T03:18:14;101000.40;;;13.80
68939;BMP180;59064;45.294;11.816;2023-05-10T03:20:48;100999.40;;;13.70
68939;BMP180;59064;45.294;11.816;2023-05-10T03:26:27;100998.40;;;13.60
68939;BMP180;59064;45.294;11.816;2023-05-10T03:28:53;101001.20;;;13.60
68939;BMP180;59064;45.294;11.816;2023-05-10T03:31:19;100991.20;;;13.58
68939;BMP180;59064;45.294;11.816;2023-05-10T03:33:47;100989.80;;;13.50
68939;BMP180;59064;45.294;11.816;2023-05-10T03:36:13;100995.80;;;13.50
68939;BMP180;59064;45.294;11.816;2023-05-10T03:38:39;100992.40;;;13.46
68939;BMP180;59064;45.294;11.816;2023-05-10T03:41:04;100994.80;;;13.40
68939;BMP180;59064;45.294;11.816;2023-05-10T03:43:30;100993.60;;;13.40
68939;BMP180;59064;45.294;11.816;2023-05-10T03:45:56;100996.60;;;13.40
68939;BMP180;59064;45.294;11.816;2023-05-10T03:48:21;100997.40;;;13.40
68939;BMP180;59064;45.294;11.816;2023-05-10T03:50:47;101002.00;;;13.30
68939;BMP180;59064;45.294;11.816;2023-05-10T03:53:14;100997.20;;;13.30
68939;BMP180;59064;45.294;11.816;2023-05-10T03:55:40;100999.40;;;13.30
68939;BMP180;59064;45.294;11.816;2023-05-10T03:58:05;100998.60;;;13.30
68939;BMP180;59064;45.294;11.816;2023-05-10T04:00:31;101000.40;;;13.20
68939;BMP180;59064;45.294;11.816;2023-05-10T04:02:57;101005.20;;;13.20
68939;BMP180;59064;45.294;11.816;2023-05-10T04:05:23;101003.40;;;13.20
68939;BMP180;59064;45.294;11.816;2023-05-10T04:07:49;101008.20;;;13.10
68939;BMP180;59064;45.294;11.816;2023-05-10T04:10:15;101004.60;;;13.10
68939;BMP180;59064;45.294;11.816;2023-05-10T04:12:42;101005.60;;;13.10
68939;BMP180;59064;45.294;11.816;2023-05-10T04:15:10;101007.40;;;13.02
68939;BMP180;59064;45.294;11.816;2023-05-10T04:17:36;101006.80;;;13.00
68939;BMP180;59064;45.294;11.816;2023-05-10T04:20:03;101005.20;;;13.00
68939;BMP180;59064;45.294;11.816;2023-05-10T04:22:28;101004.80;;;12.96
68939;BMP180;59064;45.294;11.816;2023-05-10T04:24:54;100999.40;;;12.90
68939;BMP180;59064;45.294;11.816;2023-05-10T04:27:20;100998.40;;;12.90
68939;BMP180;59064;45.294;11.816;2023-05-10T04:29:45;100998.80;;;12.88
68939;BMP180;59064;45.294;11.816;2023-05-10T04:32:11;100993.00;;;12.80
68939;BMP180;59064;45.294;11.816;2023-05-10T04:34:37;100993.60;;;12.80
68939;BMP180;59064;45.294;11.816;2023-05-10T04:37:02;100993.80;;;12.80
68939;BMP180;59064;45.294;11.816;2023-05-10T04:39:28;100994.40;;;12.70
68939;BMP180;59064;45.294;11.816;2023-05-10T04:41:54;100992.60;;;12.70
68939;BMP180;59064;45.294;11.816;2023-05-10T04:44:19;100999.00;;;12.70
68939;BMP180;59064;45.294;11.816;2023-05-10T04:46:45;100995.60;;;12.70
68939;BMP180;59064;45.294;11.816;2023-05-10T04:49:11;100996.60;;;12.70
68939;BMP180;59064;45.294;11.816;2023-05-10T04:51:36;100997.80;;;12.62
68939;BMP180;59064;45.294;11.816;2023-05-10T04:54:02;100997.20;;;12.60
68939;BMP180;59064;45.294;11.816;2023-05-10T04:56:28;100994.00;;;12.60
68939;BMP180;59064;45.294;11.816;2023-05-10T04:58:53;100999.00;;;12.60
68939;BMP180;59064;45.294;11.816;2023-05-10T05:01:19;100999.40;;;12.54
68939;BMP180;59064;45.294;11.816;2023-05-10T05:03:44;101004.60;;;12.50
68939;BMP180;59064;45.294;11.816;2023-05-10T05:06:10;101002.20;;;12.50
68939;BMP180;59064;45.294;11.816;2023-05-10T05:08:36;101002.60;;;12.50
68939;BMP180;59064;45.294;11.816;2023-05-10T05:11:02;101001.00;;;12.50
68939;BMP180;59064;45.294;11.816;2023-05-10T05:13:28;101008.00;;;12.50
68939;BMP180;59064;45.294;11.816;2023-05-10T05:15:53;101007.40;;;12.46
68939;BMP180;59064;45.294;11.816;2023-05-10T05:18:19;101009.60;;;12.42
68939;BMP180;59064;45.294;11.816;2023-05-10T05:20:45;101013.60;;;12.40
68939;BMP180;59064;45.294;11.816;2023-05-10T05:23:11;101016.60;;;12.40
68939;BMP180;59064;45.294;11.816;2023-05-10T05:25:37;101012.00;;;12.40
68939;BMP180;59064;45.294;11.816;2023-05-10T05:28:02;101009.20;;;12.40
68939;BMP180;59064;45.294;11.816;2023-05-10T05:30:28;101010.80;;;12.40
68939;BMP180;59064;45.294;11.816;2023-05-10T05:32:54;101009.80;;;12.40
68939;BMP180;59064;45.294;11.816;2023-05-10T05:35:22;101013.20;;;12.40
68939;BMP180;59064;45.294;11.816;2023-05-10T05:37:48;101012.00;;;12.40
68939;BMP180;59064;45.294;11.816;2023-05-10T05:40:13;101009.80;;;12.40
68939;BMP180;59064;45.294;11.816;2023-05-10T05:42:39;101015.40;;;12.40
68939;BMP180;59064;45.294;11.816;2023-05-10T05:45:05;101013.60;;;12.40
68939;BMP180;59064;45.294;11.816;2023-05-10T05:47:31;101013.40;;;12.44
68939;BMP180;59064;45.294;11.816;2023-05-10T05:49:57;101010.80;;;12.44
68939;BMP180;59064;45.294;11.816;2023-05-10T05:52:23;101018.20;;;12.50
68939;BMP180;59064;45.294;11.816;2023-05-10T05:54:48;101015.40;;;12.50
68939;BMP180;59064;45.294;11.816;2023-05-10T05:57:14;101016.60;;;12.50
68939;BMP180;59064;45.294;11.816;2023-05-10T05:59:39;101016.60;;;12.50
68939;BMP180;59064;45.294;11.816;2023-05-10T06:02:10;101018.60;;;12.50
68939;BMP180;59064;45.294;11.816;2023-05-10T06:04:35;101018.40;;;12.50
68939;BMP180;59064;45.294;11.816;2023-05-10T06:07:01;101020.80;;;12.50
68939;BMP180;59064;45.294;11.816;2023-05-10T06:09:26;101021.60;;;12.50
68939;BMP180;59064;45.294;11.816;2023-05-10T06:11:52;101022.20;;;12.50
68939;BMP180;59064;45.294;11.816;2023-05-10T06:14:20;101023.60;;;12.50
68939;BMP180;59064;45.294;11.816;2023-05-10T06:16:45;101029.00;;;12.50
68939;BMP180;59064;45.294;11.816;2023-05-10T06:19:11;101033.40;;;12.50
68939;BMP180;59064;45.294;11.816;2023-05-10T06:21:37;101032.60;;;12.50
68939;BMP180;59064;45.294;11.816;2023-05-10T06:24:03;101039.40;;;12.50
68939;BMP180;59064;45.294;11.816;2023-05-10T06:26:28;101038.60;;;12.50
68939;BMP180;59064;45.294;11.816;2023-05-10T06:28:54;101038.00;;;12.50
68939;BMP180;59064;45.294;11.816;2023-05-10T06:31:20;101039.80;;;12.50
68939;BMP180;59064;45.294;11.816;2023-05-10T06:33:46;101035.00;;;12.40
68939;BMP180;59064;45.294;11.816;2023-05-10T06:36:11;101031.00;;;12.40
68939;BMP180;59064;45.294;11.816;2023-05-10T06:38:38;101034.00;;;12.40
68939;BMP180;59064;45.294;11.816;2023-05-10T06:41:03;101025.40;;;12.34
68939;BMP180;59064;45.294;11.816;2023-05-10T06:43:29;101024.20;;;12.30
68939;BMP180;59064;45.294;11.816;2023-05-10T06:45:55;101023.20;;;12.30
68939;BMP180;59064;45.294;11.816;2023-05-10T06:48:20;101025.40;;;12.30
68939;BMP180;59064;45.294;11.816;2023-05-10T06:50:45;101025.60;;;12.30
68939;BMP180;59064;45.294;11.816;2023-05-10T06:53:11;101029.80;;;12.30
68939;BMP180;59064;45.294;11.816;2023-05-10T06:55:37;101032.20;;;12.30
68939;BMP180;59064;45.294;11.816;2023-05-10T06:58:03;101032.00;;;12.30
68939;BMP180;59064;45.294;11.816;2023-05-10T07:00:28;101032.80;;;12.30
68939;BMP180;59064;45.294;11.816;2023-05-10T07:02:54;101031.40;;;12.30
68939;BMP180;59064;45.294;11.816;2023-05-10T07:05:20;101029.20;;;12.30
68939;BMP180;59064;45.294;11.816;2023-05-10T07:07:46;101026.80;;;12.30
68939;BMP180;59064;45.294;11.816;2023-05-10T07:10:11;101026.60;;;12.30
68939;BMP180;59064;45.294;11.816;2023-05-10T07:12:37;101026.60;;;12.30
68939;BMP180;59064;45.294;11.816;2023-05-10T07:15:03;101022.80;;;12.20
68939;BMP180;59064;45.294;11.816;2023-05-10T07:17:29;101027.60;;;12.20
68939;BMP180;59064;45.294;11.816;2023-05-10T07:19:55;101024.80;;;12.20
68939;BMP180;59064;45.294;11.816;2023-05-10T07:22:20;101024.60;;;12.20
68939;BMP180;59064;45.294;11.816;2023-05-10T07:24:46;101025.40;;;12.20
68939;BMP180;59064;45.294;11.816;2023-05-10T07:27:11;101026.60;;;12.20
68939;BMP180;59064;45.294;11.816;2023-05-10T07:29:38;101026.80;;;12.20
68939;BMP180;59064;45.294;11.816;2023-05-10T07:32:04;101024.00;;;12.20
68939;BMP180;59064;45.294;11.816;2023-05-10T07:34:30;101030.40;;;12.20
68939;BMP180;59064;45.294;11.816;2023-05-10T07:37:00;101033.20;;;12.20
68939;BMP180;59064;45.294;11.816;2023-05-10T07:39:26;101035.40;;;12.20
68939;BMP180;59064;45.294;11.816;2023-05-10T07:41:52;101036.60;;;12.20
68939;BMP180;59064;45.294;11.816;2023-05-10T07:44:18;101040.60;;;12.20
68939;BMP180;59064;45.294;11.816;2023-05-10T07:46:45;101039.60;;;12.20
68939;BMP180;59064;45.294;11.816;2023-05-10T07:49:11;101037.20;;;12.18
68939;BMP180;59064;45.294;11.816;2023-05-10T07:51:36;101036.00;;;12.12
68939;BMP180;59064;45.294;11.816;2023-05-10T07:54:02;101038.80;;;12.10
68939;BMP180;59064;45.294;11.816;2023-05-10T07:56:30;101043.40;;;12.10
68939;BMP180;59064;45.294;11.816;2023-05-10T07:59:00;101040.60;;;12.10
68939;BMP180;59064;45.294;11.816;2023-05-10T08:01:29;101043.00;;;12.10
68939;BMP180;59064;45.294;11.816;2023-05-10T08:03:55;101043.20;;;12.10
68939;BMP180;59064;45.294;11.816;2023-05-10T08:06:21;101046.00;;;12.16
68939;BMP180;59064;45.294;11.816;2023-05-10T08:08:48;101043.00;;;12.20
68939;BMP180;59064;45.294;11.816;2023-05-10T08:11:19;101044.00;;;12.20
68939;BMP180;59064;45.294;11.816;2023-05-10T08:13:46;101044.60;;;12.20
68939;BMP180;59064;45.294;11.816;2023-05-10T08:16:11;101049.60;;;12.20
68939;BMP180;59064;45.294;11.816;2023-05-10T08:18:37;101047.60;;;12.20
68939;BMP180;59064;45.294;11.816;2023-05-10T08:21:03;101047.40;;;12.20
68939;BMP180;59064;45.294;11.816;2023-05-10T08:23:29;101048.00;;;12.28
68939;BMP180;59064;45.294;11.816;2023-05-10T08:25:54;101045.80;;;12.30
68939;BMP180;59064;45.294;11.816;2023-05-10T08:28:20;101046.60;;;12.30
68939;BMP180;59064;45.294;11.816;2023-05-10T08:30:45;101050.00;;;12.30
68939;BMP180;59064;45.294;11.816;2023-05-10T08:33:11;101044.00;;;12.32
68939;BMP180;59064;45.294;11.816;2023-05-10T08:35:36;101046.80;;;12.30
68939;BMP180;59064;45.294;11.816;2023-05-10T08:38:02;101043.60;;;12.30
68939;BMP180;59064;45.294;11.816;2023-05-10T08:40:27;101048.60;;;12.30
68939;BMP180;59064;45.294;11.816;2023-05-10T08:43:06;101055.40;;;12.30
68939;BMP180;59064;45.294;11.816;2023-05-10T08:45:35;101054.00;;;12.20
68939;BMP180;59064;45.294;11.816;2023-05-10T08:48:04;101058.00;;;12.20
68939;BMP180;59064;45.294;11.816;2023-05-10T08:50:31;101055.00;;;12.10
68939;BMP180;59064;45.294;11.816;2023-05-10T08:53:00;101053.00;;;12.10
68939;BMP180;59064;45.294;11.816;2023-05-10T08:55:26;101056.00;;;12.10
68939;BMP180;59064;45.294;11.816;2023-05-10T08:57:53;101053.80;;;12.10
68939;BMP180;59064;45.294;11.816;2023-05-10T09:00:19;101045.80;;;12.10
68939;BMP180;59064;45.294;11.816;2023-05-10T09:02:45;101051.80;;;12.10
68939;BMP180;59064;45.294;11.816;2023-05-10T09:05:13;101054.40;;;12.20
68939;BMP180;59064;45.294;11.816;2023-05-10T09:07:41;101051.20;;;12.20
68939;BMP180;59064;45.294;11.816;2023-05-10T09:10:08;101054.40;;;12.22
68939;BMP180;59064;45.294;11.816;2023-05-10T09:12:34;101054.00;;;12.30
68939;BMP180;59064;45.294;11.816;2023-05-10T09:15:01;101055.00;;;12.30
68939;BMP180;59064;45.294;11.816;2023-05-10T09:17:28;101057.20;;;12.30
68939;BMP180;59064;45.294;11.816;2023-05-10T09:20:04;101060.60;;;12.38
68939;BMP180;59064;45.294;11.816;2023-05-10T09:22:30;101059.60;;;12.40
68939;BMP180;59064;45.294;11.816;2023-05-10T09:25:10;101046.80;;;12.40
68939;BMP180;59064;45.294;11.816;2023-05-10T09:27:37;101046.00;;;12.40
68939;BMP180;59064;45.294;11.816;2023-05-10T09:30:03;101031.60;;;12.40
68939;BMP180;59064;45.294;11.816;2023-05-10T09:32:47;101028.20;;;12.46
68939;BMP180;59064;45.294;11.816;2023-05-10T09:35:17;101023.20;;;12.50
68939;BMP180;59064;45.294;11.816;2023-05-10T09:37:48;101024.60;;;12.50
68939;BMP180;59064;45.294;11.816;2023-05-10T09:40:22;101027.40;;;12.50
68939;BMP180;59064;45.294;11.816;2023-05-10T09:45:26;101028.60;;;12.60
68939;BMP180;59064;45.294;11.816;2023-05-10T09:47:52;101027.20;;;12.60
68939;BMP180;59064;45.294;11.816;2023-05-10T09:50:19;101026.40;;;12.60
68939;BMP180;59064;45.294;11.816;2023-05-10T09:52:51;101026.60;;;12.60
68939;BMP180;59064;45.294;11.816;2023-05-10T09:55:19;101024.20;;;12.60
68939;BMP180;59064;45.294;11.816;2023-05-10T09:57:46;101030.80;;;12.60
68939;BMP180;59064;45.294;11.816;2023-05-10T10:00:19;101030.80;;;12.60
68939;BMP180;59064;45.294;11.816;2023-05-10T10:02:47;101039.40;;;12.60
68939;BMP180;59064;45.294;11.816;2023-05-10T10:05:13;101041.00;;;12.60
68939;BMP180;59064;45.294;11.816;2023-05-10T10:07:39;101037.80;;;12.60
68939;BMP180;59064;45.294;11.816;2023-05-10T10:10:05;101038.40;;;12.64
68939;BMP180;59064;45.294;11.816;2023-05-10T10:12:36;101036.80;;;12.70
68939;BMP180;59064;45.294;11.816;2023-05-10T10:15:02;101032.60;;;12.70
68939;BMP180;59064;45.294;11.816;2023-05-10T10:17:30;101026.40;;;12.68
68939;BMP180;59064;45.294;11.816;2023-05-10T10:19:57;101025.60;;;12.60
68939;BMP180;59064;45.294;11.816;2023-05-10T10:22:22;101017.20;;;12.60
68939;BMP180;59064;45.294;11.816;2023-05-10T10:24:48;101023.00;;;12.60
68939;BMP180;59064;45.294;11.816;2023-05-10T10:30:40;101038.40;;;12.60
68939;BMP180;59064;45.294;11.816;2023-05-10T10:33:33;101039.40;;;12.60
68939;BMP180;59064;45.294;11.816;2023-05-10T10:36:02;101033.00;;;12.60
68939;BMP180;59064;45.294;11.816;2023-05-10T10:41:30;101022.60;;;12.60
68939;BMP180;59064;45.294;11.816;2023-05-10T10:44:22;101021.00;;;12.60
68939;BMP180;59064;45.294;11.816;2023-05-10T10:47:21;101015.20;;;12.70
68939;BMP180;59064;45.294;11.816;2023-05-10T10:52:38;101012.40;;;12.78
68939;BMP180;59064;45.294;11.816;2023-05-10T10:55:15;101010.20;;;12.80
68939;BMP180;59064;45.294;11.816;2023-05-10T10:57:46;101014.20;;;12.90
68939;BMP180;59064;45.294;11.816;2023-05-10T11:03:00;101011.00;;;12.90
68939;BMP180;59064;45.294;11.816;2023-05-10T11:05:44;101006.40;;;13.00
68939;BMP180;59064;45.294;11.816;2023-05-10T11:10:38;100990.60;;;13.00
68939;BMP180;59064;45.294;11.816;2023-05-10T11:13:10;100979.60;;;13.00
68939;BMP180;59064;45.294;11.816;2023-05-10T11:15:40;100980.20;;;13.00
68939;BMP180;59064;45.294;11.816;2023-05-10T11:18:24;100982.80;;;13.00
68939;BMP180;59064;45.294;11.816;2023-05-10T11:21:00;100983.40;;;13.00
68939;BMP180;59064;45.294;11.816;2023-05-10T11:26:07;100978.60;;;13.00
68939;BMP180;59064;45.294;11.816;2023-05-10T11:28:46;100980.80;;;13.00
68939;BMP180;59064;45.294;11.816;2023-05-10T11:31:19;100983.80;;;13.00
68939;BMP180;59064;45.294;11.816;2023-05-10T11:33:49;100980.60;;;13.00
68939;BMP180;59064;45.294;11.816;2023-05-10T11:36:24;100978.20;;;13.04
68939;BMP180;59064;45.294;11.816;2023-05-10T11:38:51;100972.60;;;13.10
68939;BMP180;59064;45.294;11.816;2023-05-10T11:41:18;100974.40;;;13.10
68939;BMP180;59064;45.294;11.816;2023-05-10T11:43:46;100976.20;;;13.02
68939;BMP180;59064;45.294;11.816;2023-05-10T11:46:14;100979.20;;;13.00
68939;BMP180;59064;45.294;11.816;2023-05-10T11:48:40;100982.20;;;13.00
68939;BMP180;59064;45.294;11.816;2023-05-10T11:51:07;100975.20;;;13.00
68939;BMP180;59064;45.294;11.816;2023-05-10T11:53:33;100980.60;;;12.98
68939;BMP180;59064;45.294;11.816;2023-05-10T11:56:05;100981.00;;;12.98
68939;BMP180;59064;45.294;11.816;2023-05-10T11:58:32;100983.40;;;13.00
68939;BMP180;59064;45.294;11.816;2023-05-10T12:01:03;100987.00;;;13.00
68939;BMP180;59064;45.294;11.816;2023-05-10T12:03:29;100981.80;;;13.00
68939;BMP180;59064;45.294;11.816;2023-05-10T12:05:56;100984.40;;;13.00
68939;BMP180;59064;45.294;11.816;2023-05-10T12:08:26;100980.40;;;13.00
68939;BMP180;59064;45.294;11.816;2023-05-10T12:10:53;100977.60;;;13.00
68939;BMP180;59064;45.294;11.816;2023-05-10T12:13:20;100972.80;;;13.00
68939;BMP180;59064;45.294;11.816;2023-05-10T12:15:46;100966.60;;;13.00
68939;BMP180;59064;45.294;11.816;2023-05-10T12:18:13;100973.20;;;13.00
68939;BMP180;59064;45.294;11.816;2023-05-10T12:20:39;100966.40;;;12.98
68939;BMP180;59064;45.294;11.816;2023-05-10T12:23:05;100973.20;;;12.90
68939;BMP180;59064;45.294;11.816;2023-05-10T12:25:34;100974.40;;;12.90
68939;BMP180;59064;45.294;11.816;2023-05-10T12:28:03;100970.20;;;12.90
68939;BMP180;59064;45.294;11.816;2023-05-10T12:30:31;100953.00;;;12.88
68939;BMP180;59064;45.294;11.816;2023-05-10T12:35:27;100956.00;;;12.90
68939;BMP180;59064;45.294;11.816;2023-05-10T12:37:55;100952.00;;;12.90
68939;BMP180;59064;45.294;11.816;2023-05-10T12:40:20;100949.80;;;12.90
68939;BMP180;59064;45.294;11.816;2023-05-10T12:42:46;100955.60;;;12.90
68939;BMP180;59064;45.294;11.816;2023-05-10T12:45:12;100958.40;;;12.90
68939;BMP180;59064;45.294;11.816;2023-05-10T12:47:38;100959.20;;;12.90
68939;BMP180;59064;45.294;11.816;2023-05-10T12:50:04;100957.00;;;12.90
68939;BMP180;59064;45.294;11.816;2023-05-10T12:52:31;100967.00;;;12.90
68939;BMP180;59064;45.294;11.816;2023-05-10T12:55:00;100963.80;;;12.90
68939;BMP180;59064;45.294;11.816;2023-05-10T12:57:26;100950.00;;;12.90
68939;BMP180;59064;45.294;11.816;2023-05-10T12:59:52;100958.60;;;12.90
68939;BMP180;59064;45.294;11.816;2023-05-10T13:02:18;100963.20;;;12.90
68939;BMP180;59064;45.294;11.816;2023-05-10T13:04:44;100953.40;;;12.90
68939;BMP180;59064;45.294;11.816;2023-05-10T13:07:11;100966.80;;;12.90
68939;BMP180;59064;45.294;11.816;2023-05-10T13:09:37;100960.80;;;12.90
68939;BMP180;59064;45.294;11.816;2023-05-10T13:12:02;100959.40;;;12.90
68939;BMP180;59064;45.294;11.816;2023-05-10T13:14:29;100959.40;;;12.90
68939;BMP180;59064;45.294;11.816;2023-05-10T13:16:55;100952.20;;;12.90
68939;BMP180;59064;45.294;11.816;2023-05-10T13:19:20;100956.00;;;12.88
68939;BMP180;59064;45.294;11.816;2023-05-10T13:21:46;100953.40;;;12.88
68939;BMP180;59064;45.294;11.816;2023-05-10T13:24:12;100947.00;;;12.90
68939;BMP180;59064;45.294;11.816;2023-05-10T13:26:42;100947.80;;;12.88
68939;BMP180;59064;45.294;11.816;2023-05-10T13:29:08;100947.20;;;12.90
68939;BMP180;59064;45.294;11.816;2023-05-10T13:31:34;100945.60;;;12.90
68939;BMP180;59064;45.294;11.816;2023-05-10T13:34:00;100934.60;;;12.82
68939;BMP180;59064;45.294;11.816;2023-05-10T13:36:26;100939.00;;;12.86
68939;BMP180;59064;45.294;11.816;2023-05-10T13:38:51;100936.20;;;12.90
68939;BMP180;59064;45.294;11.816;2023-05-10T13:41:17;100939.20;;;12.90
68939;BMP180;59064;45.294;11.816;2023-05-10T13:43:42;100936.20;;;12.90
68939;BMP180;59064;45.294;11.816;2023-05-10T13:46:08;100931.20;;;12.90
68939;BMP180;59064;45.294;11.816;2023-05-10T13:48:34;100930.20;;;12.90
68939;BMP180;59064;45.294;11.816;2023-05-10T13:51:02;100935.20;;;12.90
68939;BMP180;59064;45.294;11.816;2023-05-10T13:53:27;100930.20;;;12.90
68939;BMP180;59064;45.294;11.816;2023-05-10T13:59:02;100936.80;;;12.90
68939;BMP180;59064;45.294;11.816;2023-05-10T14:01:27;100914.40;;;12.88
68939;BMP180;59064;45.294;11.816;2023-05-10T14:03:53;100922.20;;;12.80
68939;BMP180;59064;45.294;11.816;2023-05-10T14:06:18;100922.40;;;12.80
68939;BMP180;59064;45.294;11.816;2023-05-10T14:08:44;100922.00;;;12.80
68939;BMP180;59064;45.294;11.816;2023-05-10T14:11:11;100918.40;;;12.80
68939;BMP180;59064;45.294;11.816;2023-05-10T14:13:36;100917.80;;;12.80
68939;BMP180;59064;45.294;11.816;2023-05-10T14:16:02;100919.40;;;12.80
68939;BMP180;59064;45.294;11.816;2023-05-10T14:18:28;100909.00;;;12.78
68939;BMP180;59064;45.294;11.816;2023-05-10T14:20:54;100908.20;;;12.78
68939;BMP180;59064;45.294;11.816;2023-05-10T14:23:21;100913.60;;;12.80
68939;BMP180;59064;45.294;11.816;2023-05-10T14:25:50;100913.40;;;12.80
68939;BMP180;59064;45.294;11.816;2023-05-10T14:28:16;100906.20;;;12.80